sensor_id;sensor_type;location;lat;lon;timestamp;P1;durP1;ratioP1;P2;durP2;ratioP2
11731;SDS011;5922;53.734;10.258;2023-04-25T00:01:02;5.90;;;3.40;;
11731;SDS011;5922;53.734;10.258;2023-04-25T00:03:30;9.57;;;4.07;;
11731;SDS011;5922;53.734;10.258;2023-04-25T00:05:57;7.30;;;3.47;;
11731;SDS011;5922;53.734;10.258;2023-04-25T00:08:27;6.50;;;3.97;;
11731;SDS011;5922;53.734;10.258;2023-04-25T00:10:54;8.20;;;3.57;;
11731;SDS011;5922;53.734;10.258;2023-04-25T00:13:23;9.13;;;3.63;;
11731;SDS011;5922;53.734;10.258;2023-04-25T00:15:50;8.17;;;3.63;;
11731;SDS011;5922;53.734;10.258;2023-04-25T00:18:18;9.07;;;3.33;;
11731;SDS011;5922;53.734;10.258;2023-04-25T00:20:45;10.37;;;3.53;;
11731;SDS011;5922;53.734;10.258;2023-04-25T00:23:12;10.07;;;3.13;;
11731;SDS011;5922;53.734;10.258;2023-04-25T00:25:42;15.07;;;3.37;;
11731;SDS011;5922;53.734;10.258;2023-04-25T00:28:10;12.40;;;3.57;;
11731;SDS011;5922;53.734;10.258;2023-04-25T00:30:39;10.30;;;3.33;;
11731;SDS011;5922;53.734;10.258;2023-04-25T00:33:06;16.47;;;3.50;;
11731;SDS011;5922;53.734;10.258;2023-04-25T00:35:33;15.57;;;3.67;;
11731;SDS011;5922;53.734;10.258;2023-04-25T00:38:01;13.93;;;3.53;;
11731;SDS011;5922;53.734;10.258;2023-04-25T00:40:28;11.43;;;3.60;;
11731;SDS011;5922;53.734;10.258;2023-04-25T00:42:56;17.37;;;3.93;;
11731;SDS011;5922;53.734;10.258;2023-04-25T00:45:23;9.53;;;3.33;;
11731;SDS011;5922;53.734;10.258;2023-04-25T00:47:55;17.87;;;3.97;;
11731;SDS011;5922;53.734;10.258;2023-04-25T00:50:23;15.40;;;4.00;;
11731;SDS011;5922;53.734;10.258;2023-04-25T00:52:50;14.03;;;3.43;;
11731;SDS011;5922;53.734;10.258;2023-04-25T00:55:17;17.47;;;3.47;;
11731;SDS011;5922;53.734;10.258;2023-04-25T00:57:45;18.47;;;3.93;;
11731;SDS011;5922;53.734;10.258;2023-04-25T01:00:13;14.73;;;3.93;;
11731;SDS011;5922;53.734;10.258;2023-04-25T01:02:40;15.00;;;3.70;;
11731;SDS011;5922;53.734;10.258;2023-04-25T01:05:09;18.07;;;3.87;;
11731;SDS011;5922;53.734;10.258;2023-04-25T01:07:38;19.87;;;3.97;;
11731;SDS011;5922;53.734;10.258;2023-04-25T01:10:06;10.63;;;3.20;;
11731;SDS011;5922;53.734;10.258;2023-04-25T01:12:34;10.43;;;3.30;;
11731;SDS011;5922;53.734;10.258;2023-04-25T01:15:01;12.00;;;3.93;;
11731;SDS011;5922;53.734;10.258;2023-04-25T01:17:28;13.00;;;3.43;;
11731;SDS011;5922;53.734;10.258;2023-04-25T01:19:56;15.33;;;3.83;;
11731;SDS011;5922;53.734;10.258;2023-04-25T01:22:25;15.80;;;4.03;;
11731;SDS011;5922;53.734;10.258;2023-04-25T01:24:52;15.17;;;4.37;;
11731;SDS011;5922;53.734;10.258;2023-04-25T01:27:20;16.57;;;3.23;;
11731;SDS011;5922;53.734;10.258;2023-04-25T01:29:47;17.73;;;4.20;;
11731;SDS011;5922;53.734;10.258;2023-04-25T01:32:15;12.47;;;3.90;;
11731;SDS011;5922;53.734;10.258;2023-04-25T01:34:42;16.07;;;3.90;;
11731;SDS011;5922;53.734;10.258;2023-04-25T01:37:10;15.73;;;3.93;;
11731;SDS011;5922;53.734;10.258;2023-04-25T01:39:38;18.37;;;4.60;;
11731;SDS011;5922;53.734;10.258;2023-04-25T01:42:06;16.03;;;4.57;;
11731;SDS011;5922;53.734;10.258;2023-04-25T01:44:33;15.13;;;4.13;;
11731;SDS011;5922;53.734;10.258;2023-04-25T01:47:00;23.63;;;4.57;;
11731;SDS011;5922;53.734;10.258;2023-04-25T01:49:27;19.40;;;3.90;;
11731;SDS011;5922;53.734;10.258;2023-04-25T01:51:54;17.43;;;4.83;;
11731;SDS011;5922;53.734;10.258;2023-04-25T01:54:22;14.37;;;3.97;;
11731;SDS011;5922;53.734;10.258;2023-04-25T01:56:51;14.90;;;3.80;;
11731;SDS011;5922;53.734;10.258;2023-04-25T01:59:18;17.27;;;4.53;;
11731;SDS011;5922;53.734;10.258;2023-04-25T02:01:46;20.57;;;4.00;;
11731;SDS011;5922;53.734;10.258;2023-04-25T02:04:14;18.27;;;4.13;;
11731;SDS011;5922;53.734;10.258;2023-04-25T02:06:41;14.43;;;4.37;;
11731;SDS011;5922;53.734;10.258;2023-04-25T02:09:08;14.53;;;3.90;;
11731;SDS011;5922;53.734;10.258;2023-04-25T02:11:35;14.83;;;4.13;;
11731;SDS011;5922;53.734;10.258;2023-04-25T02:14:04;12.93;;;3.50;;
11731;SDS011;5922;53.734;10.258;2023-04-25T02:16:31;18.83;;;3.93;;
11731;SDS011;5922;53.734;10.258;2023-04-25T02:18:58;24.60;;;4.70;;
11731;SDS011;5922;53.734;10.258;2023-04-25T02:21:26;18.73;;;4.33;;
11731;SDS011;5922;53.734;10.258;2023-04-25T02:23:53;16.13;;;4.00;;
11731;SDS011;5922;53.734;10.258;2023-04-25T02:26:20;17.53;;;3.93;;
11731;SDS011;5922;53.734;10.258;2023-04-25T02:28:48;14.30;;;3.97;;
11731;SDS011;5922;53.734;10.258;2023-04-25T02:31:18;20.37;;;4.37;;
11731;SDS011;5922;53.734;10.258;2023-04-25T02:33:45;11.43;;;4.20;;
11731;SDS011;5922;53.734;10.258;2023-04-25T02:36:12;15.67;;;3.97;;
11731;SDS011;5922;53.734;10.258;2023-04-25T02:38:40;19.33;;;4.70;;
11731;SDS011;5922;53.734;10.258;2023-04-25T02:41:07;16.43;;;4.13;;
11731;SDS011;5922;53.734;10.258;2023-04-25T02:43:34;16.07;;;4.10;;
11731;SDS011;5922;53.734;10.258;2023-04-25T02:46:01;16.00;;;4.07;;
11731;SDS011;5922;53.734;10.258;2023-04-25T02:48:30;14.93;;;4.17;;
11731;SDS011;5922;53.734;10.258;2023-04-25T02:50:57;15.83;;;3.60;;
11731;SDS011;5922;53.734;10.258;2023-04-25T02:53:25;18.20;;;5.53;;
11731;SDS011;5922;53.734;10.258;2023-04-25T02:55:52;13.87;;;4.50;;
11731;SDS011;5922;53.734;10.258;2023-04-25T02:58:19;9.63;;;4.03;;
11731;SDS011;5922;53.734;10.258;2023-04-25T03:00:46;14.03;;;3.77;;
11731;SDS011;5922;53.734;10.258;2023-04-25T03:03:14;20.37;;;5.67;;
11731;SDS011;5922;53.734;10.258;2023-04-25T03:05:44;16.70;;;8.33;;
11731;SDS011;5922;53.734;10.258;2023-04-25T03:08:11;27.97;;;21.73;;
11731;SDS011;5922;53.734;10.258;2023-04-25T03:10:39;15.93;;;4.97;;
11731;SDS011;5922;53.734;10.258;2023-04-25T03:13:06;17.43;;;4.03;;
11731;SDS011;5922;53.734;10.258;2023-04-25T03:15:34;19.67;;;4.33;;
11731;SDS011;5922;53.734;10.258;2023-04-25T03:18:01;15.73;;;4.63;;
11731;SDS011;5922;53.734;10.258;2023-04-25T03:20:29;19.10;;;4.23;;
11731;SDS011;5922;53.734;10.258;2023-04-25T03:22:57;17.43;;;3.83;;
11731;SDS011;5922;53.734;10.258;2023-04-25T03:25:25;16.10;;;4.07;;
11731;SDS011;5922;53.734;10.258;2023-04-25T03:27:52;14.97;;;4.23;;
11731;SDS011;5922;53.734;10.258;2023-04-25T03:30:20;14.03;;;4.03;;
11731;SDS011;5922;53.734;10.258;2023-04-25T03:32:47;15.83;;;3.93;;
11731;SDS011;5922;53.734;10.258;2023-04-25T03:35:14;17.67;;;4.17;;
11731;SDS011;5922;53.734;10.258;2023-04-25T03:37:42;16.47;;;3.80;;
11731;SDS011;5922;53.734;10.258;2023-04-25T03:40:12;18.70;;;4.20;;
11731;SDS011;5922;53.734;10.258;2023-04-25T03:42:39;18.83;;;4.00;;
11731;SDS011;5922;53.734;10.258;2023-04-25T03:45:07;21.70;;;3.77;;
11731;SDS011;5922;53.734;10.258;2023-04-25T03:47:34;17.17;;;4.00;;
11731;SDS011;5922;53.734;10.258;2023-04-25T03:50:02;19.23;;;4.23;;
11731;SDS011;5922;53.734;10.258;2023-04-25T03:52:29;20.63;;;4.37;;
11731;SDS011;5922;53.734;10.258;2023-04-25T03:54:56;20.60;;;4.23;;
11731;SDS011;5922;53.734;10.258;2023-04-25T03:57:25;15.57;;;4.30;;
11731;SDS011;5922;53.734;10.258;2023-04-25T03:59:52;19.07;;;4.70;;
11731;SDS011;5922;53.734;10.258;2023-04-25T04:02:19;15.70;;;4.10;;
11731;SDS011;5922;53.734;10.258;2023-04-25T04:04:46;17.10;;;3.97;;
11731;SDS011;5922;53.734;10.258;2023-04-25T04:07:14;18.70;;;3.90;;
11731;SDS011;5922;53.734;10.258;2023-04-25T04:09:41;17.67;;;4.07;;
11731;SDS011;5922;53.734;10.258;2023-04-25T04:12:08;21.83;;;4.43;;
11731;SDS011;5922;53.734;10.258;2023-04-25T04:14:37;22.00;;;4.57;;
11731;SDS011;5922;53.734;10.258;2023-04-25T04:17:04;13.07;;;3.80;;
11731;SDS011;5922;53.734;10.258;2023-04-25T04:19:32;17.27;;;4.30;;
11731;SDS011;5922;53.734;10.258;2023-04-25T04:21:59;24.73;;;4.60;;
11731;SDS011;5922;53.734;10.258;2023-04-25T04:24:26;21.43;;;3.97;;
11731;SDS011;5922;53.734;10.258;2023-04-25T04:26:54;16.53;;;4.40;;
11731;SDS011;5922;53.734;10.258;2023-04-25T04:29:21;16.17;;;3.73;;
11731;SDS011;5922;53.734;10.258;2023-04-25T04:31:51;19.27;;;3.93;;
11731;SDS011;5922;53.734;10.258;2023-04-25T04:34:18;18.33;;;3.83;;
11731;SDS011;5922;53.734;10.258;2023-04-25T04:36:45;17.23;;;4.17;;
11731;SDS011;5922;53.734;10.258;2023-04-25T04:39:16;15.23;;;3.53;;
11731;SDS011;5922;53.734;10.258;2023-04-25T04:41:43;11.43;;;3.43;;
11731;SDS011;5922;53.734;10.258;2023-04-25T04:44:10;16.60;;;3.63;;
11731;SDS011;5922;53.734;10.258;2023-04-25T04:46:37;13.10;;;3.20;;
11731;SDS011;5922;53.734;10.258;2023-04-25T04:49:08;16.33;;;4.07;;
11731;SDS011;5922;53.734;10.258;2023-04-25T04:51:35;14.77;;;3.27;;
11731;SDS011;5922;53.734;10.258;2023-04-25T04:54:03;12.57;;;3.33;;
11731;SDS011;5922;53.734;10.258;2023-04-25T04:56:30;17.87;;;3.53;;
11731;SDS011;5922;53.734;10.258;2023-04-25T04:58:57;12.60;;;3.77;;
11731;SDS011;5922;53.734;10.258;2023-04-25T05:01:25;10.07;;;3.27;;
11731;SDS011;5922;53.734;10.258;2023-04-25T05:03:52;14.47;;;3.40;;
11731;SDS011;5922;53.734;10.258;2023-04-25T05:06:26;18.03;;;4.50;;
11731;SDS011;5922;53.734;10.258;2023-04-25T05:08:55;14.93;;;3.60;;
11731;SDS011;5922;53.734;10.258;2023-04-25T05:11:22;10.37;;;3.47;;
11731;SDS011;5922;53.734;10.258;2023-04-25T05:13:50;17.50;;;3.90;;
11731;SDS011;5922;53.734;10.258;2023-04-25T05:16:18;14.60;;;3.70;;
11731;SDS011;5922;53.734;10.258;2023-04-25T05:18:45;11.00;;;3.33;;
11731;SDS011;5922;53.734;10.258;2023-04-25T05:21:13;14.47;;;3.80;;
11731;SDS011;5922;53.734;10.258;2023-04-25T05:23:41;14.70;;;3.93;;
11731;SDS011;5922;53.734;10.258;2023-04-25T05:26:09;15.00;;;3.40;;
11731;SDS011;5922;53.734;10.258;2023-04-25T05:28:38;11.40;;;3.07;;
11731;SDS011;5922;53.734;10.258;2023-04-25T05:31:06;12.50;;;3.13;;
11731;SDS011;5922;53.734;10.258;2023-04-25T05:33:34;13.47;;;3.33;;
11731;SDS011;5922;53.734;10.258;2023-04-25T05:36:05;14.33;;;3.83;;
11731;SDS011;5922;53.734;10.258;2023-04-25T05:38:32;13.37;;;3.57;;
11731;SDS011;5922;53.734;10.258;2023-04-25T05:41:01;14.73;;;3.60;;
11731;SDS011;5922;53.734;10.258;2023-04-25T05:43:28;10.50;;;3.83;;
11731;SDS011;5922;53.734;10.258;2023-04-25T05:45:55;12.97;;;4.20;;
11731;SDS011;5922;53.734;10.258;2023-04-25T05:48:23;7.93;;;2.90;;
11731;SDS011;5922;53.734;10.258;2023-04-25T05:50:50;12.10;;;3.10;;
11731;SDS011;5922;53.734;10.258;2023-04-25T05:53:17;14.30;;;3.73;;
11731;SDS011;5922;53.734;10.258;2023-04-25T05:55:45;7.00;;;2.40;;
11731;SDS011;5922;53.734;10.258;2023-04-25T05:58:13;9.80;;;2.97;;
11731;SDS011;5922;53.734;10.258;2023-04-25T06:00:41;12.33;;;3.10;;
11731;SDS011;5922;53.734;10.258;2023-04-25T06:03:08;17.23;;;3.47;;
11731;SDS011;5922;53.734;10.258;2023-04-25T06:05:35;13.93;;;3.43;;
11731;SDS011;5922;53.734;10.258;2023-04-25T06:08:03;12.53;;;3.17;;
11731;SDS011;5922;53.734;10.258;2023-04-25T06:10:30;9.77;;;2.97;;
11731;SDS011;5922;53.734;10.258;2023-04-25T06:12:57;10.87;;;3.43;;
11731;SDS011;5922;53.734;10.258;2023-04-25T06:15:26;13.77;;;3.20;;
11731;SDS011;5922;53.734;10.258;2023-04-25T06:17:53;12.93;;;3.00;;
11731;SDS011;5922;53.734;10.258;2023-04-25T06:20:21;10.83;;;3.37;;
11731;SDS011;5922;53.734;10.258;2023-04-25T06:22:49;7.27;;;2.73;;
11731;SDS011;5922;53.734;10.258;2023-04-25T06:25:19;12.70;;;3.23;;
11731;SDS011;5922;53.734;10.258;2023-04-25T06:27:47;12.60;;;2.83;;
11731;SDS011;5922;53.734;10.258;2023-04-25T06:30:14;7.63;;;2.90;;
11731;SDS011;5922;53.734;10.258;2023-04-25T06:32:44;13.10;;;3.20;;
11731;SDS011;5922;53.734;10.258;2023-04-25T06:35:12;12.50;;;3.10;;
11731;SDS011;5922;53.734;10.258;2023-04-25T06:37:40;8.63;;;2.83;;
11731;SDS011;5922;53.734;10.258;2023-04-25T06:40:07;9.97;;;2.90;;
11731;SDS011;5922;53.734;10.258;2023-04-25T06:42:35;12.97;;;3.00;;
11731;SDS011;5922;53.734;10.258;2023-04-25T06:45:02;9.70;;;2.80;;
11731;SDS011;5922;53.734;10.258;2023-04-25T06:47:30;11.10;;;3.47;;
11731;SDS011;5922;53.734;10.258;2023-04-25T06:49:59;11.27;;;3.30;;
11731;SDS011;5922;53.734;10.258;2023-04-25T06:52:26;6.70;;;2.67;;
11731;SDS011;5922;53.734;10.258;2023-04-25T06:54:53;17.63;;;3.40;;
11731;SDS011;5922;53.734;10.258;2023-04-25T06:57:20;12.23;;;3.00;;
11731;SDS011;5922;53.734;10.258;2023-04-25T06:59:48;14.90;;;3.27;;
11731;SDS011;5922;53.734;10.258;2023-04-25T07:02:15;11.40;;;3.50;;
11731;SDS011;5922;53.734;10.258;2023-04-25T07:04:43;12.67;;;3.10;;
11731;SDS011;5922;53.734;10.258;2023-04-25T07:07:12;11.60;;;2.77;;
11731;SDS011;5922;53.734;10.258;2023-04-25T07:09:40;10.43;;;2.90;;
11731;SDS011;5922;53.734;10.258;2023-04-25T07:12:07;8.53;;;2.57;;
11731;SDS011;5922;53.734;10.258;2023-04-25T07:14:34;10.63;;;2.97;;
11731;SDS011;5922;53.734;10.258;2023-04-25T07:17:01;9.50;;;2.43;;
11731;SDS011;5922;53.734;10.258;2023-04-25T07:19:31;9.60;;;2.60;;
11731;SDS011;5922;53.734;10.258;2023-04-25T07:21:59;11.60;;;3.10;;
11731;SDS011;5922;53.734;10.258;2023-04-25T07:24:28;11.90;;;2.80;;
11731;SDS011;5922;53.734;10.258;2023-04-25T07:26:55;9.20;;;2.50;;
11731;SDS011;5922;53.734;10.258;2023-04-25T07:29:23;5.50;;;2.57;;
11731;SDS011;5922;53.734;10.258;2023-04-25T07:31:51;8.37;;;2.60;;
11731;SDS011;5922;53.734;10.258;2023-04-25T07:34:18;10.13;;;2.77;;
11731;SDS011;5922;53.734;10.258;2023-04-25T07:36:45;8.90;;;2.50;;
11731;SDS011;5922;53.734;10.258;2023-04-25T07:39:12;9.10;;;3.20;;
11731;SDS011;5922;53.734;10.258;2023-04-25T07:41:41;8.67;;;2.50;;
11731;SDS011;5922;53.734;10.258;2023-04-25T07:44:08;10.13;;;2.50;;
11731;SDS011;5922;53.734;10.258;2023-04-25T07:46:36;7.73;;;2.70;;
11731;SDS011;5922;53.734;10.258;2023-04-25T07:49:03;5.93;;;2.40;;
11731;SDS011;5922;53.734;10.258;2023-04-25T07:51:30;8.10;;;2.50;;
11731;SDS011;5922;53.734;10.258;2023-04-25T07:53:57;8.80;;;2.20;;
11731;SDS011;5922;53.734;10.258;2023-04-25T07:56:25;7.20;;;2.10;;
11731;SDS011;5922;53.734;10.258;2023-04-25T07:58:54;9.13;;;2.83;;
11731;SDS011;5922;53.734;10.258;2023-04-25T08:01:22;11.50;;;2.57;;
11731;SDS011;5922;53.734;10.258;2023-04-25T08:03:49;10.30;;;3.20;;
11731;SDS011;5922;53.734;10.258;2023-04-25T08:06:16;8.70;;;2.70;;
11731;SDS011;5922;53.734;10.258;2023-04-25T08:08:43;8.97;;;2.77;;
11731;SDS011;5922;53.734;10.258;2023-04-25T08:11:11;7.57;;;2.53;;
11731;SDS011;5922;53.734;10.258;2023-04-25T08:13:38;10.10;;;2.63;;
11731;SDS011;5922;53.734;10.258;2023-04-25T08:16:07;6.23;;;2.33;;
11731;SDS011;5922;53.734;10.258;2023-04-25T08:18:34;8.80;;;2.47;;
11731;SDS011;5922;53.734;10.258;2023-04-25T08:21:01;11.00;;;2.70;;
11731;SDS011;5922;53.734;10.258;2023-04-25T08:23:28;10.17;;;2.43;;
11731;SDS011;5922;53.734;10.258;2023-04-25T08:25:56;11.10;;;3.03;;
11731;SDS011;5922;53.734;10.258;2023-04-25T08:28:23;8.20;;;2.37;;
11731;SDS011;5922;53.734;10.258;2023-04-25T08:30:51;9.73;;;2.10;;
11731;SDS011;5922;53.734;10.258;2023-04-25T08:33:19;8.07;;;2.47;;
11731;SDS011;5922;53.734;10.258;2023-04-25T08:35:46;9.27;;;2.23;;
11731;SDS011;5922;53.734;10.258;2023-04-25T08:38:14;4.77;;;2.03;;
11731;SDS011;5922;53.734;10.258;2023-04-25T08:40:41;7.63;;;2.43;;
11731;SDS011;5922;53.734;10.258;2023-04-25T08:43:10;6.40;;;2.30;;
11731;SDS011;5922;53.734;10.258;2023-04-25T08:45:40;7.93;;;2.30;;
11731;SDS011;5922;53.734;10.258;2023-04-25T08:48:09;7.23;;;2.43;;
11731;SDS011;5922;53.734;10.258;2023-04-25T08:50:38;9.17;;;2.40;;
11731;SDS011;5922;53.734;10.258;2023-04-25T08:53:07;9.83;;;3.17;;
11731;SDS011;5922;53.734;10.258;2023-04-25T08:55:38;6.60;;;2.10;;
11731;SDS011;5922;53.734;10.258;2023-04-25T08:58:07;5.43;;;1.70;;
11731;SDS011;5922;53.734;10.258;2023-04-25T09:00:36;5.90;;;2.10;;
11731;SDS011;5922;53.734;10.258;2023-04-25T09:03:04;7.40;;;2.30;;
11731;SDS011;5922;53.734;10.258;2023-04-25T09:05:31;7.80;;;1.80;;
11731;SDS011;5922;53.734;10.258;2023-04-25T09:08:01;6.20;;;1.90;;
11731;SDS011;5922;53.734;10.258;2023-04-25T09:10:28;11.30;;;2.07;;
11731;SDS011;5922;53.734;10.258;2023-04-25T09:13:02;8.60;;;2.47;;
11731;SDS011;5922;53.734;10.258;2023-04-25T09:15:31;10.20;;;2.27;;
11731;SDS011;5922;53.734;10.258;2023-04-25T09:17:58;5.07;;;2.03;;
11731;SDS011;5922;53.734;10.258;2023-04-25T09:20:26;6.33;;;2.03;;
11731;SDS011;5922;53.734;10.258;2023-04-25T09:23:04;5.73;;;2.27;;
11731;SDS011;5922;53.734;10.258;2023-04-25T09:25:35;5.60;;;1.90;;
11731;SDS011;5922;53.734;10.258;2023-04-25T09:28:04;3.30;;;1.90;;
11731;SDS011;5922;53.734;10.258;2023-04-25T09:30:32;7.77;;;2.23;;
11731;SDS011;5922;53.734;10.258;2023-04-25T09:33:03;3.93;;;1.93;;
11731;SDS011;5922;53.734;10.258;2023-04-25T09:35:35;4.07;;;1.90;;
11731;SDS011;5922;53.734;10.258;2023-04-25T09:38:08;6.67;;;1.97;;
11731;SDS011;5922;53.734;10.258;2023-04-25T09:40:38;4.37;;;1.80;;
11731;SDS011;5922;53.734;10.258;2023-04-25T09:43:08;9.23;;;1.83;;
11731;SDS011;5922;53.734;10.258;2023-04-25T09:45:40;11.03;;;2.67;;
11731;SDS011;5922;53.734;10.258;2023-04-25T09:48:10;6.73;;;2.00;;
11731;SDS011;5922;53.734;10.258;2023-04-25T09:50:37;5.97;;;1.70;;
11731;SDS011;5922;53.734;10.258;2023-04-25T09:53:05;5.53;;;1.83;;
11731;SDS011;5922;53.734;10.258;2023-04-25T09:55:34;6.97;;;2.10;;
11731;SDS011;5922;53.734;10.258;2023-04-25T09:58:03;4.67;;;1.90;;
11731;SDS011;5922;53.734;10.258;2023-04-25T10:00:32;6.97;;;2.10;;
11731;SDS011;5922;53.734;10.258;2023-04-25T10:03:00;4.23;;;1.87;;
11731;SDS011;5922;53.734;10.258;2023-04-25T10:05:28;5.07;;;2.00;;
11731;SDS011;5922;53.734;10.258;2023-04-25T10:07:58;7.30;;;1.67;;
11731;SDS011;5922;53.734;10.258;2023-04-25T10:10:25;8.77;;;2.23;;
11731;SDS011;5922;53.734;10.258;2023-04-25T10:12:55;6.67;;;2.23;;
11731;SDS011;5922;53.734;10.258;2023-04-25T10:15:23;7.30;;;1.93;;
11731;SDS011;5922;53.734;10.258;2023-04-25T10:17:50;6.33;;;1.97;;
11731;SDS011;5922;53.734;10.258;2023-04-25T10:20:18;5.83;;;2.17;;
11731;SDS011;5922;53.734;10.258;2023-04-25T10:22:45;6.03;;;1.87;;
11731;SDS011;5922;53.734;10.258;2023-04-25T10:25:13;5.07;;;1.97;;
11731;SDS011;5922;53.734;10.258;2023-04-25T10:27:41;7.03;;;2.40;;
11731;SDS011;5922;53.734;10.258;2023-04-25T10:30:10;2.83;;;1.63;;
11731;SDS011;5922;53.734;10.258;2023-04-25T10:32:41;5.40;;;2.07;;
11731;SDS011;5922;53.734;10.258;2023-04-25T10:35:12;4.43;;;1.80;;
11731;SDS011;5922;53.734;10.258;2023-04-25T10:40:22;6.57;;;1.87;;
11731;SDS011;5922;53.734;10.258;2023-04-25T10:42:51;3.87;;;1.67;;
11731;SDS011;5922;53.734;10.258;2023-04-25T10:47:53;10.63;;;2.00;;
11731;SDS011;5922;53.734;10.258;2023-04-25T10:50:36;4.20;;;1.60;;
11731;SDS011;5922;53.734;10.258;2023-04-25T10:53:16;4.97;;;2.17;;
11731;SDS011;5922;53.734;10.258;2023-04-25T10:55:51;8.30;;;1.93;;
11731;SDS011;5922;53.734;10.258;2023-04-25T10:58:21;3.83;;;1.50;;
11731;SDS011;5922;53.734;10.258;2023-04-25T11:00:48;5.80;;;1.60;;
11731;SDS011;5922;53.734;10.258;2023-04-25T11:03:17;5.33;;;2.17;;
11731;SDS011;5922;53.734;10.258;2023-04-25T11:05:49;6.03;;;1.67;;
11731;SDS011;5922;53.734;10.258;2023-04-25T11:08:17;3.07;;;1.60;;
11731;SDS011;5922;53.734;10.258;2023-04-25T11:10:49;7.73;;;2.00;;
11731;SDS011;5922;53.734;10.258;2023-04-25T11:13:16;4.70;;;1.70;;
11731;SDS011;5922;53.734;10.258;2023-04-25T11:15:43;5.97;;;2.30;;
11731;SDS011;5922;53.734;10.258;2023-04-25T11:18:15;5.50;;;1.70;;
11731;SDS011;5922;53.734;10.258;2023-04-25T11:20:44;5.43;;;1.83;;
11731;SDS011;5922;53.734;10.258;2023-04-25T11:23:11;7.20;;;1.87;;
11731;SDS011;5922;53.734;10.258;2023-04-25T11:25:39;6.40;;;1.90;;
11731;SDS011;5922;53.734;10.258;2023-04-25T11:28:06;10.63;;;2.33;;
11731;SDS011;5922;53.734;10.258;2023-04-25T11:30:33;5.77;;;1.90;;
11731;SDS011;5922;53.734;10.258;2023-04-25T11:33:00;5.87;;;2.10;;
11731;SDS011;5922;53.734;10.258;2023-04-25T11:35:28;5.20;;;2.00;;
11731;SDS011;5922;53.734;10.258;2023-04-25T11:37:57;5.87;;;1.90;;
11731;SDS011;5922;53.734;10.258;2023-04-25T11:40:25;3.73;;;1.60;;
11731;SDS011;5922;53.734;10.258;2023-04-25T11:42:53;4.77;;;1.70;;
11731;SDS011;5922;53.734;10.258;2023-04-25T11:45:20;6.90;;;1.90;;
11731;SDS011;5922;53.734;10.258;2023-04-25T11:47:47;3.87;;;1.20;;
11731;SDS011;5922;53.734;10.258;2023-04-25T11:50:14;3.33;;;1.70;;
11731;SDS011;5922;53.734;10.258;2023-04-25T11:52:42;4.83;;;1.60;;
11731;SDS011;5922;53.734;10.258;2023-04-25T11:55:13;6.30;;;1.83;;
11731;SDS011;5922;53.734;10.258;2023-04-25T11:57:40;11.20;;;1.90;;
11731;SDS011;5922;53.734;10.258;2023-04-25T12:00:09;5.10;;;1.97;;
11731;SDS011;5922;53.734;10.258;2023-04-25T12:02:37;5.30;;;1.80;;
11731;SDS011;5922;53.734;10.258;2023-04-25T12:05:07;5.50;;;1.60;;
11731;SDS011;5922;53.734;10.258;2023-04-25T12:07:34;6.03;;;1.57;;
11731;SDS011;5922;53.734;10.258;2023-04-25T12:10:06;6.53;;;2.40;;
11731;SDS011;5922;53.734;10.258;2023-04-25T12:12:35;4.40;;;1.70;;
11731;SDS011;5922;53.734;10.258;2023-04-25T12:15:09;8.17;;;1.77;;
11731;SDS011;5922;53.734;10.258;2023-04-25T12:17:37;6.27;;;1.87;;
11731;SDS011;5922;53.734;10.258;2023-04-25T12:20:06;4.20;;;1.63;;
11731;SDS011;5922;53.734;10.258;2023-04-25T12:22:33;6.03;;;1.43;;
11731;SDS011;5922;53.734;10.258;2023-04-25T12:25:01;5.40;;;1.80;;
11731;SDS011;5922;53.734;10.258;2023-04-25T12:27:30;4.67;;;1.60;;
11731;SDS011;5922;53.734;10.258;2023-04-25T12:29:59;5.83;;;1.90;;
11731;SDS011;5922;53.734;10.258;2023-04-25T12:32:26;6.37;;;1.60;;
11731;SDS011;5922;53.734;10.258;2023-04-25T12:34:54;7.87;;;1.60;;
11731;SDS011;5922;53.734;10.258;2023-04-25T12:37:21;9.63;;;1.97;;
11731;SDS011;5922;53.734;10.258;2023-04-25T12:39:48;3.57;;;1.90;;
11731;SDS011;5922;53.734;10.258;2023-04-25T12:42:16;11.60;;;2.10;;
11731;SDS011;5922;53.734;10.258;2023-04-25T12:44:43;9.40;;;2.33;;
11731;SDS011;5922;53.734;10.258;2023-04-25T12:47:13;5.73;;;1.73;;
11731;SDS011;5922;53.734;10.258;2023-04-25T12:49:40;6.60;;;1.80;;
11731;SDS011;5922;53.734;10.258;2023-04-25T12:52:08;7.30;;;1.80;;
11731;SDS011;5922;53.734;10.258;2023-04-25T12:54:35;5.37;;;1.77;;
11731;SDS011;5922;53.734;10.258;2023-04-25T12:57:03;7.73;;;1.77;;
11731;SDS011;5922;53.734;10.258;2023-04-25T12:59:30;5.90;;;1.90;;
11731;SDS011;5922;53.734;10.258;2023-04-25T13:01:58;7.60;;;1.50;;
11731;SDS011;5922;53.734;10.258;2023-04-25T13:04:26;5.30;;;1.97;;
11731;SDS011;5922;53.734;10.258;2023-04-25T13:06:53;4.87;;;1.80;;
11731;SDS011;5922;53.734;10.258;2023-04-25T13:09:21;5.10;;;1.67;;
11731;SDS011;5922;53.734;10.258;2023-04-25T13:11:48;4.87;;;1.70;;
11731;SDS011;5922;53.734;10.258;2023-04-25T13:14:15;5.60;;;1.70;;
11731;SDS011;5922;53.734;10.258;2023-04-25T13:16:42;1.93;;;1.20;;
11731;SDS011;5922;53.734;10.258;2023-04-25T13:19:10;5.67;;;1.47;;
11731;SDS011;5922;53.734;10.258;2023-04-25T13:21:39;7.70;;;1.60;;
11731;SDS011;5922;53.734;10.258;2023-04-25T13:24:06;4.90;;;1.97;;
11731;SDS011;5922;53.734;10.258;2023-04-25T13:26:33;6.37;;;1.90;;
11731;SDS011;5922;53.734;10.258;2023-04-25T13:29:01;8.30;;;1.90;;
11731;SDS011;5922;53.734;10.258;2023-04-25T13:31:29;3.07;;;1.57;;
11731;SDS011;5922;53.734;10.258;2023-04-25T13:33:56;7.13;;;1.80;;
11731;SDS011;5922;53.734;10.258;2023-04-25T13:36:24;5.37;;;1.70;;
11731;SDS011;5922;53.734;10.258;2023-04-25T13:38:52;4.90;;;1.80;;
11731;SDS011;5922;53.734;10.258;2023-04-25T13:41:19;5.33;;;1.93;;
11731;SDS011;5922;53.734;10.258;2023-04-25T13:43:47;4.37;;;1.70;;
11731;SDS011;5922;53.734;10.258;2023-04-25T13:46:14;4.53;;;1.50;;
11731;SDS011;5922;53.734;10.258;2023-04-25T13:48:41;6.67;;;1.37;;
11731;SDS011;5922;53.734;10.258;2023-04-25T13:51:12;7.47;;;1.67;;
11731;SDS011;5922;53.734;10.258;2023-04-25T13:53:39;3.53;;;1.43;;
11731;SDS011;5922;53.734;10.258;2023-04-25T13:56:08;9.93;;;2.17;;
11731;SDS011;5922;53.734;10.258;2023-04-25T13:58:36;4.53;;;1.80;;
11731;SDS011;5922;53.734;10.258;2023-04-25T14:01:03;5.73;;;2.00;;
11731;SDS011;5922;53.734;10.258;2023-04-25T14:03:30;5.67;;;1.80;;
11731;SDS011;5922;53.734;10.258;2023-04-25T14:05:57;6.67;;;1.97;;
11731;SDS011;5922;53.734;10.258;2023-04-25T14:08:25;6.13;;;2.20;;
11731;SDS011;5922;53.734;10.258;2023-04-25T14:10:53;6.50;;;1.77;;
11731;SDS011;5922;53.734;10.258;2023-04-25T14:13:22;9.47;;;2.07;;
11731;SDS011;5922;53.734;10.258;2023-04-25T14:15:50;7.30;;;2.03;;
11731;SDS011;5922;53.734;10.258;2023-04-25T14:18:17;6.13;;;1.77;;
11731;SDS011;5922;53.734;10.258;2023-04-25T14:20:44;6.80;;;2.30;;
11731;SDS011;5922;53.734;10.258;2023-04-25T14:23:12;6.97;;;2.00;;
11731;SDS011;5922;53.734;10.258;2023-04-25T14:25:39;7.40;;;1.93;;
11731;SDS011;5922;53.734;10.258;2023-04-25T14:28:07;6.27;;;1.73;;
11731;SDS011;5922;53.734;10.258;2023-04-25T14:30:36;5.87;;;2.00;;
11731;SDS011;5922;53.734;10.258;2023-04-25T14:33:03;6.30;;;1.93;;
11731;SDS011;5922;53.734;10.258;2023-04-25T14:35:30;4.40;;;1.60;;
11731;SDS011;5922;53.734;10.258;2023-04-25T14:37:57;6.47;;;1.73;;
11731;SDS011;5922;53.734;10.258;2023-04-25T14:40:25;4.13;;;1.80;;
11731;SDS011;5922;53.734;10.258;2023-04-25T14:42:52;4.87;;;2.00;;
11731;SDS011;5922;53.734;10.258;2023-04-25T14:45:20;7.53;;;1.87;;
11731;SDS011;5922;53.734;10.258;2023-04-25T14:47:48;7.17;;;1.50;;
11731;SDS011;5922;53.734;10.258;2023-04-25T14:50:17;4.93;;;1.70;;